Time;durP1;ratioP1;P1;durP2;ratioP2;P2;SDS_P1;SDS_P2;PMS_P1;PMS_P2;Temp;Humidity;BMP_temperature;BMP_pressure;BME280_temperature;BME280_humidity;BME280_pressure;Samples;Min_cycle;Max_cycle;Signal;HPM_P1;HPM_P2
2020/12/03 00:00:24;;;;;;;23.77;13.75;;;;;;;;;;5080978;28;20214;-77
2020/12/03 00:02:50;;;;;;;20.05;13.90;;;;;;;;;;5094047;28;20193;-78
2020/12/03 00:05:17;;;;;;;21.10;13.48;;;;;;;;;;5095020;28;20213;-79
2020/12/03 00:07:45;;;;;;;22.80;13.07;;;;;;;;;;5095452;28;20200;-78
2020/12/03 00:10:12;;;;;;;25.38;14.00;;;;;;;;;;5077437;28;20226;-76
2020/12/03 00:12:39;;;;;;;20.33;12.68;;;;;;;;;;5076978;28;20285;-75
2020/12/03 00:15:05;;;;;;;24.80;13.30;;;;;;;;;;5076720;28;20573;-76
2020/12/03 00:17:32;;;;;;;19.75;12.98;;;;;;;;;;5077099;28;20190;-76
2020/12/03 00:20:15;;;;;;;22.60;12.27;;;;;;;;;;5080446;28;20214;-77
2020/12/03 00:22:42;;;;;;;23.75;14.57;;;;;;;;;;5076908;28;20219;-76
2020/12/03 00:25:10;;;;;;;22.55;13.18;;;;;;;;;;5074325;28;20222;-78
2020/12/03 00:27:37;;;;;;;21.52;13.55;;;;;;;;;;5074563;28;20624;-79
2020/12/03 00:30:05;;;;;;;22.17;14.00;;;;;;;;;;5074124;28;20672;-78
2020/12/03 00:32:32;;;;;;;22.42;12.38;;;;;;;;;;5076798;28;20201;-77
2020/12/03 00:34:58;;;;;;;21.45;13.77;;;;;;;;;;5076821;28;20710;-76
2020/12/03 00:37:25;;;;;;;21.23;12.75;;;;;;;;;;5076390;28;20198;-78
2020/12/03 00:39:52;;;;;;;17.85;12.00;;;;;;;;;;5076558;28;20580;-76
2020/12/03 00:42:20;;;;;;;21.33;13.65;;;;;;;;;;5080478;28;20185;-77
2020/12/03 00:44:47;;;;;;;16.05;11.35;;;;;;;;;;5087538;28;20209;-78
2020/12/03 00:47:13;;;;;;;20.50;13.10;;;;;;;;;;5094525;28;20235;-78
2020/12/03 00:49:40;;;;;;;19.63;12.43;;;;;;;;;;5094222;28;20665;-79
2020/12/03 00:52:07;;;;;;;18.20;11.20;;;;;;;;;;5092787;28;20193;-77
2020/12/03 00:54:34;;;;;;;19.92;13.10;;;;;;;;;;5076282;28;20218;-77
2020/12/03 00:57:01;;;;;;;17.88;12.32;;;;;;;;;;5076316;28;20548;-75
2020/12/03 00:59:28;;;;;;;18.73;12.27;;;;;;;;;;5076191;28;20579;-75
2020/12/03 01:01:55;;;;;;;18.95;12.18;;;;;;;;;;5076127;28;20204;-78
2020/12/03 01:04:22;;;;;;;21.05;13.27;;;;;;;;;;5079838;28;20190;-77
2020/12/03 01:06:49;;;;;;;20.52;13.48;;;;;;;;;;5086720;28;20216;-77
2020/12/03 01:09:16;;;;;;;18.23;12.15;;;;;;;;;;5094163;28;20202;-77
2020/12/03 01:11:42;;;;;;;16.70;11.45;;;;;;;;;;5094131;28;20648;-79
2020/12/03 01:14:09;;;;;;;18.88;12.30;;;;;;;;;;5091346;28;20491;-79
2020/12/03 01:16:37;;;;;;;16.75;12.23;;;;;;;;;;5075776;28;20200;-79
2020/12/03 01:19:04;;;;;;;19.35;11.05;;;;;;;;;;5075876;28;20228;-78
2020/12/03 01:21:30;;;;;;;19.38;12.50;;;;;;;;;;5075850;28;20201;-77
2020/12/03 01:23:57;;;;;;;18.30;13.32;;;;;;;;;;5075675;28;20669;-76
2020/12/03 01:26:24;;;;;;;18.30;11.48;;;;;;;;;;5079298;28;20219;-78
2020/12/03 01:28:51;;;;;;;17.60;12.18;;;;;;;;;;5076024;28;20285;-78
2020/12/03 01:31:18;;;;;;;19.08;12.93;;;;;;;;;;5073344;28;20195;-76
2020/12/03 01:33:45;;;;;;;19.88;12.57;;;;;;;;;;5073008;28;20285;-77
2020/12/03 01:36:13;;;;;;;19.55;12.10;;;;;;;;;;5073076;28;20692;-77
2020/12/03 01:38:39;;;;;;;17.77;11.80;;;;;;;;;;5075497;28;20285;-78
2020/12/03 01:41:06;;;;;;;18.63;12.60;;;;;;;;;;5075541;28;20579;-78
2020/12/03 01:43:33;;;;;;;18.70;12.70;;;;;;;;;;5075552;28;20293;-78
2020/12/03 01:46:01;;;;;;;18.08;11.60;;;;;;;;;;5075331;28;20226;-77
2020/12/03 01:48:31;;;;;;;19.10;12.40;;;;;;;;;;5078843;28;20200;-77
2020/12/03 01:50:59;;;;;;;19.17;12.30;;;;;;;;;;5085473;28;20213;-77
2020/12/03 01:53:26;;;;;;;20.85;12.82;;;;;;;;;;5093251;28;20561;-77
2020/12/03 01:55:53;;;;;;;16.08;11.55;;;;;;;;;;5091680;28;20679;-79
2020/12/03 01:58:27;;;;;;;20.50;12.70;;;;;;;;;;5089993;28;20189;-78
2020/12/03 02:00:54;;;;;;;22.35;13.50;;;;;;;;;;5074707;28;20320;-77
2020/12/03 02:03:22;;;;;;;18.73;11.90;;;;;;;;;;5075265;28;20289;-78
2020/12/03 02:05:49;;;;;;;19.38;12.40;;;;;;;;;;5074929;28;20222;-78
2020/12/03 02:08:17;;;;;;;19.95;12.70;;;;;;;;;;5075263;28;20239;-78
2020/12/03 02:10:43;;;;;;;20.40;12.55;;;;;;;;;;5078618;28;20192;-79
2020/12/03 02:13:10;;;;;;;19.17;12.50;;;;;;;;;;5074089;28;20277;-78
2020/12/03 02:15:37;;;;;;;20.73;12.95;;;;;;;;;;5072248;28;20225;-78
2020/12/03 02:18:04;;;;;;;23.25;15.15;;;;;;;;;;5072683;28;20196;-77
2020/12/03 02:20:32;;;;;;;19.75;12.40;;;;;;;;;;5072336;28;20225;-77
2020/12/03 02:22:59;;;;;;;17.48;12.85;;;;;;;;;;5074667;28;20584;-78
2020/12/03 02:25:26;;;;;;;19.00;12.98;;;;;;;;;;5074166;28;20709;-79
2020/12/03 02:27:53;;;;;;;21.27;13.50;;;;;;;;;;5074344;28;20201;-78
2020/12/03 02:30:20;;;;;;;21.40;13.52;;;;;;;;;;5074806;28;20288;-78
2020/12/03 02:32:46;;;;;;;22.80;14.00;;;;;;;;;;5078333;28;20268;-78
2020/12/03 02:35:14;;;;;;;21.27;13.35;;;;;;;;;;5073953;28;20570;-79
2020/12/03 02:37:42;;;;;;;24.52;13.60;;;;;;;;;;5070823;28;20285;-77
2020/12/03 02:40:10;;;;;;;21.55;13.73;;;;;;;;;;5071851;28;20250;-77
2020/12/03 02:42:37;;;;;;;21.25;13.50;;;;;;;;;;5071830;28;20714;-78
2020/12/03 02:45:04;;;;;;;20.65;13.23;;;;;;;;;;5074215;28;20221;-77
2020/12/03 02:47:30;;;;;;;19.70;12.10;;;;;;;;;;5073006;28;20229;-77
2020/12/03 02:49:57;;;;;;;20.85;13.65;;;;;;;;;;5074206;28;20208;-78
2020/12/03 02:52:25;;;;;;;18.52;13.65;;;;;;;;;;5074347;28;20209;-78
2020/12/03 02:54:53;;;;;;;21.35;13.15;;;;;;;;;;5077542;28;20300;-79
2020/12/03 02:57:20;;;;;;;20.05;13.63;;;;;;;;;;5072202;28;20201;-78
2020/12/03 02:59:48;;;;;;;23.15;13.55;;;;;;;;;;5070479;28;20232;-77
2020/12/03 03:02:15;;;;;;;19.77;12.65;;;;;;;;;;5072046;28;20289;-77
2020/12/03 03:04:41;;;;;;;22.10;13.18;;;;;;;;;;5071601;28;20214;-78
2020/12/03 03:07:09;;;;;;;17.80;11.57;;;;;;;;;;5073920;28;20289;-77
2020/12/03 03:09:35;;;;;;;20.45;13.48;;;;;;;;;;5073742;28;20289;-78
2020/12/03 03:12:03;;;;;;;20.92;12.43;;;;;;;;;;5073906;28;20265;-77
2020/12/03 03:14:30;;;;;;;17.92;12.80;;;;;;;;;;5073957;28;20324;-78
2020/12/03 03:16:57;;;;;;;22.80;13.52;;;;;;;;;;5077367;28;20669;-77
2020/12/03 03:19:24;;;;;;;25.95;12.52;;;;;;;;;;5086316;28;20209;-77
2020/12/03 03:21:51;;;;;;;18.80;12.30;;;;;;;;;;5090383;28;20200;-78
2020/12/03 03:24:18;;;;;;;18.33;12.68;;;;;;;;;;5091405;28;20216;-78
2020/12/03 03:26:45;;;;;;;19.65;12.35;;;;;;;;;;5088080;28;20201;-78
2020/12/03 03:29:12;;;;;;;20.52;11.63;;;;;;;;;;5073744;28;20208;-77
2020/12/03 03:31:39;;;;;;;18.38;12.05;;;;;;;;;;5073668;28;20288;-77
2020/12/03 03:34:06;;;;;;;18.45;13.30;;;;;;;;;;5073372;28;20675;-78
2020/12/03 03:36:34;;;;;;;18.25;11.90;;;;;;;;;;5073438;28;20696;-78
2020/12/03 03:39:01;;;;;;;21.80;12.55;;;;;;;;;;5076402;28;20210;-77
2020/12/03 03:41:28;;;;;;;19.40;13.93;;;;;;;;;;5072526;28;20209;-79
2020/12/03 03:43:55;;;;;;;18.40;11.02;;;;;;;;;;5071319;28;20190;-77
2020/12/03 03:46:23;;;;;;;22.35;12.75;;;;;;;;;;5071142;28;20228;-78
2020/12/03 03:48:49;;;;;;;20.23;10.88;;;;;;;;;;5071110;28;20204;-76
2020/12/03 03:51:17;;;;;;;18.38;12.02;;;;;;;;;;5073392;28;20314;-79
2020/12/03 03:53:43;;;;;;;17.77;10.50;;;;;;;;;;5073503;28;20208;-77
2020/12/03 03:56:10;;;;;;;17.15;11.90;;;;;;;;;;5073358;28;20216;-78
2020/12/03 03:58:37;;;;;;;18.02;12.95;;;;;;;;;;5073924;28;20365;-79
2020/12/03 04:01:04;;;;;;;19.70;11.02;;;;;;;;;;5077130;28;20225;-78
2020/12/03 04:03:32;;;;;;;17.17;10.70;;;;;;;;;;5072545;28;20194;-77
2020/12/03 04:05:58;;;;;;;17.92;10.98;;;;;;;;;;5070959;28;20214;-78
2020/12/03 04:08:26;;;;;;;17.50;11.27;;;;;;;;;;5071202;28;20281;-78
2020/12/03 04:10:53;;;;;;;17.70;11.57;;;;;;;;;;5069920;28;20209;-79
2020/12/03 04:13:21;;;;;;;15.77;9.90;;;;;;;;;;5073049;28;20250;-80
2020/12/03 04:15:48;;;;;;;15.77;9.77;;;;;;;;;;5073154;28;20305;-78
2020/12/03 04:18:15;;;;;;;15.10;9.85;;;;;;;;;;5073086;28;20201;-78
2020/12/03 04:20:42;;;;;;;14.27;8.70;;;;;;;;;;5073431;28;20228;-78
2020/12/03 04:23:09;;;;;;;15.93;9.73;;;;;;;;;;5077006;28;20655;-78
2020/12/03 04:25:36;;;;;;;14.07;9.65;;;;;;;;;;5085997;28;20216;-76
2020/12/03 04:28:04;;;;;;;14.23;9.52;;;;;;;;;;5091403;28;20285;-79
2020/12/03 04:30:31;;;;;;;14.05;9.23;;;;;;;;;;5090028;28;20503;-80
2020/12/03 04:32:57;;;;;;;15.98;10.85;;;;;;;;;;5086721;28;20719;-78
2020/12/03 04:35:24;;;;;;;15.55;10.15;;;;;;;;;;5073123;28;20215;-77
2020/12/03 04:37:52;;;;;;;17.73;11.45;;;;;;;;;;5073033;28;20209;-79
2020/12/03 04:40:26;;;;;;;15.60;10.07;;;;;;;;;;5072869;28;20225;-78
2020/12/03 04:42:53;;;;;;;15.60;10.02;;;;;;;;;;5073858;28;20267;-78
2020/12/03 04:45:29;;;;;;;14.93;10.68;;;;;;;;;;5076660;28;20305;-77
2020/12/03 04:47:59;;;;;;;13.23;9.27;;;;;;;;;;5087549;28;20399;-78
2020/12/03 04:50:30;;;;;;;15.40;10.70;;;;;;;;;;5093173;28;20583;-77
2020/12/03 04:53:09;;;;;;;18.73;10.70;;;;;;;;;;5093279;28;20305;-78
2020/12/03 04:55:41;;;;;;;12.82;9.68;;;;;;;;;;5084641;28;20305;-76
2020/12/03 04:58:10;;;;;;;14.38;9.57;;;;;;;;;;5075303;28;20217;-79
2020/12/03 05:00:41;;;;;;;14.32;9.88;;;;;;;;;;5076244;28;20591;-78
2020/12/03 05:03:14;;;;;;;15.50;9.60;;;;;;;;;;5075193;28;20289;-78
2020/12/03 05:05:47;;;;;;;12.52;9.45;;;;;;;;;;5078011;28;20289;-76
2020/12/03 05:08:25;;;;;;;11.52;8.73;;;;;;;;;;5081330;28;20195;-76
2020/12/03 05:10:52;;;;;;;12.18;9.15;;;;;;;;;;5093528;28;20212;-77
2020/12/03 05:13:21;;;;;;;13.55;9.73;;;;;;;;;;5093927;28;20228;-78
2020/12/03 05:15:49;;;;;;;13.73;10.00;;;;;;;;;;5094000;28;20224;-78
2020/12/03 05:18:25;;;;;;;14.50;9.52;;;;;;;;;;5080717;28;20225;-77
2020/12/03 05:20:53;;;;;;;12.30;8.02;;;;;;;;;;5075846;28;20222;-77
2020/12/03 05:23:21;;;;;;;14.50;8.48;;;;;;;;;;5075912;28;20293;-76
2020/12/03 05:25:49;;;;;;;15.60;9.13;;;;;;;;;;5074716;28;20356;-76
2020/12/03 05:28:31;;;;;;;14.90;9.45;;;;;;;;;;5077480;28;20843;-78
2020/12/03 05:31:06;;;;;;;14.52;8.27;;;;;;;;;;5076505;28;20260;-78
2020/12/03 05:33:33;;;;;;;14.75;10.00;;;;;;;;;;5072119;28;20229;-78
2020/12/03 05:35:59;;;;;;;13.15;8.70;;;;;;;;;;5073161;28;20309;-77
2020/12/03 05:38:27;;;;;;;10.18;7.90;;;;;;;;;;5073514;28;20306;-78
2020/12/03 05:40:56;;;;;;;11.63;8.32;;;;;;;;;;5074619;28;20236;-79
2020/12/03 05:43:23;;;;;;;12.50;8.00;;;;;;;;;;5074383;28;20726;-79
2020/12/03 05:45:50;;;;;;;13.52;8.68;;;;;;;;;;5075192;28;20686;-80
2020/12/03 05:48:19;;;;;;;12.93;8.18;;;;;;;;;;5075460;28;20191;-77
2020/12/03 05:50:46;;;;;;;12.90;8.65;;;;;;;;;;5079100;28;20189;-77
2020/12/03 05:53:14;;;;;;;13.13;9.20;;;;;;;;;;5084974;28;20276;-79
2020/12/03 05:55:42;;;;;;;13.80;8.70;;;;;;;;;;5093030;28;20228;-77
2020/12/03 05:58:13;;;;;;;13.13;8.10;;;;;;;;;;5092852;28;20761;-77
2020/12/03 06:00:40;;;;;;;14.38;8.60;;;;;;;;;;5092239;28;20316;-78
2020/12/03 06:03:14;;;;;;;10.27;7.50;;;;;;;;;;5055089;28;20195;-77
2020/12/03 06:05:48;;;;;;;11.98;8.80;;;;;;;;;;5054372;28;20443;-81
2020/12/03 06:08:25;;;;;;;11.63;8.60;;;;;;;;;;5054931;28;20205;-82
2020/12/03 06:10:59;;;;;;;13.40;9.10;;;;;;;;;;5058219;28;20277;-80
2020/12/03 06:13:34;;;;;;;12.07;9.48;;;;;;;;;;5078638;28;20214;-79
2020/12/03 06:16:01;;;;;;;16.77;10.27;;;;;;;;;;5088916;28;20743;-82
2020/12/03 06:18:36;;;;;;;15.82;10.90;;;;;;;;;;5091563;28;20229;-79
2020/12/03 06:21:09;;;;;;;14.07;10.13;;;;;;;;;;5072126;28;20622;-78
2020/12/03 06:23:43;;;;;;;14.18;10.15;;;;;;;;;;5072725;28;20562;-75
2020/12/03 06:26:17;;;;;;;15.88;10.68;;;;;;;;;;5076657;28;20204;-77
2020/12/03 06:28:55;;;;;;;16.35;9.80;;;;;;;;;;5070446;28;20213;-78
2020/12/03 06:31:25;;;;;;;15.68;10.00;;;;;;;;;;5070698;28;20277;-79
2020/12/03 06:33:55;;;;;;;17.58;10.10;;;;;;;;;;5070547;28;20281;-79
2020/12/03 06:36:26;;;;;;;17.42;10.38;;;;;;;;;;5056586;28;20211;-79
2020/12/03 06:39:03;;;;;;;17.35;10.55;;;;;;;;;;5077739;28;20253;-80
2020/12/03 06:41:39;;;;;;;15.18;10.50;;;;;;;;;;5083195;28;20220;-78
2020/12/03 06:44:13;;;;;;;15.75;11.02;;;;;;;;;;5089601;28;20204;-77
2020/12/03 06:46:52;;;;;;;15.70;9.90;;;;;;;;;;5083681;28;20285;-78
2020/12/03 06:49:34;;;;;;;14.38;10.02;;;;;;;;;;5055868;28;20194;-79
2020/12/03 06:52:16;;;;;;;14.98;9.65;;;;;;;;;;5077914;28;20190;-78
2020/12/03 06:54:47;;;;;;;16.45;10.68;;;;;;;;;;5070263;28;20206;-75
2020/12/03 06:57:28;;;;;;;13.32;9.35;;;;;;;;;;5065744;28;20480;-77
2020/12/03 07:00:06;;;;;;;15.13;9.88;;;;;;;;;;5092360;28;20225;-79
2020/12/03 07:02:51;;;;;;;13.40;9.93;;;;;;;;;;5063623;28;20675;-78
2020/12/03 07:05:30;;;;;;;15.07;10.10;;;;;;;;;;5075866;28;20205;-81
2020/12/03 07:08:07;;;;;;;16.73;9.88;;;;;;;;;;5091108;28;20196;-77
2020/12/03 07:10:49;;;;;;;14.15;9.65;;;;;;;;;;5060615;28;20201;-77
2020/12/03 07:13:36;;;;;;;15.95;11.20;;;;;;;;;;5050700;28;20285;-77
2020/12/03 07:16:20;;;;;;;12.98;9.38;;;;;;;;;;5073481;28;20214;-77
2020/12/03 07:19:02;;;;;;;14.25;9.52;;;;;;;;;;5073852;28;20190;-77
2020/12/03 07:21:37;;;;;;;13.73;8.95;;;;;;;;;;5050759;28;20582;-78
2020/12/03 07:24:05;;;;;;;16.58;9.98;;;;;;;;;;5050298;28;20205;-76
2020/12/03 07:26:39;;;;;;;14.32;10.38;;;;;;;;;;5051482;28;20700;-77
2020/12/03 07:29:12;;;;;;;13.90;8.82;;;;;;;;;;5073876;28;20281;-76
2020/12/03 07:31:45;;;;;;;13.63;9.00;;;;;;;;;;5075561;28;20190;-77
2020/12/03 07:34:19;;;;;;;15.55;10.23;;;;;;;;;;5071305;28;20626;-77
2020/12/03 07:36:51;;;;;;;13.73;9.38;;;;;;;;;;5069565;28;20216;-77
2020/12/03 07:39:20;;;;;;;14.45;9.57;;;;;;;;;;5103068;28;20195;-76
2020/12/03 07:41:49;;;;;;;14.25;9.75;;;;;;;;;;5068006;28;20222;-78
2020/12/03 07:44:19;;;;;;;14.40;9.30;;;;;;;;;;5072493;28;20233;-78
2020/12/03 07:46:48;;;;;;;13.23;9.35;;;;;;;;;;5103713;28;20233;-79
2020/12/03 07:49:29;;;;;;;12.43;8.98;;;;;;;;;;5073384;28;20233;-79
2020/12/03 07:52:11;;;;;;;12.57;8.88;;;;;;;;;;5072129;28;20277;-79
2020/12/03 07:54:38;;;;;;;12.93;9.60;;;;;;;;;;5076849;28;20301;-79
2020/12/03 07:57:19;;;;;;;16.30;10.25;;;;;;;;;;5086958;28;20289;-79
2020/12/03 07:59:46;;;;;;;12.60;8.80;;;;;;;;;;5052223;28;20195;-78
2020/12/03 08:02:27;;;;;;;12.35;10.18;;;;;;;;;;5055313;28;20769;-77
2020/12/03 08:04:55;;;;;;;13.40;8.95;;;;;;;;;;5067544;28;20662;-77
2020/12/03 08:07:28;;;;;;;13.48;9.10;;;;;;;;;;5071639;28;20233;-77
2020/12/03 08:09:55;;;;;;;14.95;9.55;;;;;;;;;;5072293;28;20289;-78
2020/12/03 08:12:24;;;;;;;12.80;9.32;;;;;;;;;;5060734;28;20638;-77
2020/12/03 08:14:52;;;;;;;15.70;9.40;;;;;;;;;;5099582;27;20221;-79
2020/12/03 08:17:33;;;;;;;14.20;8.90;;;;;;;;;;5077718;28;20321;-77
2020/12/03 08:20:15;;;;;;;12.60;9.23;;;;;;;;;;5083372;28;20213;-76
2020/12/03 08:22:43;;;;;;;14.38;9.38;;;;;;;;;;5085974;28;20300;-77
2020/12/03 08:25:11;;;;;;;12.85;8.98;;;;;;;;;;5099000;28;20280;-80
2020/12/03 08:27:38;;;;;;;13.18;8.55;;;;;;;;;;5106068;28;20289;-76
2020/12/03 08:30:20;;;;;;;14.23;9.30;;;;;;;;;;5078081;28;20269;-76
2020/12/03 08:32:55;;;;;;;13.65;9.85;;;;;;;;;;5074075;28;20284;-78
2020/12/03 08:35:22;;;;;;;15.60;9.38;;;;;;;;;;5074032;28;20242;-77
2020/12/03 08:37:49;;;;;;;13.60;9.52;;;;;;;;;;5075030;28;20256;-76
2020/12/03 08:40:16;;;;;;;16.02;9.90;;;;;;;;;;5081649;28;20312;-79
2020/12/03 08:42:43;;;;;;;12.85;9.27;;;;;;;;;;5078332;28;20193;-80
2020/12/03 08:45:09;;;;;;;13.45;8.65;;;;;;;;;;5081115;28;20227;-78
2020/12/03 08:47:40;;;;;;;17.42;10.57;;;;;;;;;;5084680;28;20286;-77
2020/12/03 08:50:14;;;;;;;14.07;9.75;;;;;;;;;;5087468;28;20572;-78
2020/12/03 08:52:41;;;;;;;12.68;9.50;;;;;;;;;;5076289;28;20194;-79
2020/12/03 08:55:09;;;;;;;13.45;9.70;;;;;;;;;;5079636;28;20241;-78
2020/12/03 08:57:37;;;;;;;13.07;9.90;;;;;;;;;;5083425;28;20190;-77
2020/12/03 09:00:07;;;;;;;17.02;9.85;;;;;;;;;;5083170;28;20242;-76
2020/12/03 09:02:34;;;;;;;13.02;9.18;;;;;;;;;;5072251;28;20226;-79
2020/12/03 09:05:01;;;;;;;14.63;9.90;;;;;;;;;;5079616;28;20222;-79
2020/12/03 09:07:31;;;;;;;16.58;10.18;;;;;;;;;;5061201;28;20230;-77
2020/12/03 09:09:59;;;;;;;18.52;10.50;;;;;;;;;;5071152;28;20228;-76
2020/12/03 09:12:27;;;;;;;15.43;10.05;;;;;;;;;;5055818;28;20195;-75
2020/12/03 09:14:56;;;;;;;16.20;10.10;;;;;;;;;;5074278;28;20226;-79
2020/12/03 09:17:25;;;;;;;12.90;9.15;;;;;;;;;;5078390;28;21495;-79
2020/12/03 09:19:53;;;;;;;13.93;8.93;;;;;;;;;;5072434;28;20206;-78
2020/12/03 09:22:20;;;;;;;13.40;9.07;;;;;;;;;;5067979;28;20190;-77
2020/12/03 09:24:49;;;;;;;12.85;8.73;;;;;;;;;;5053139;28;20692;-78
2020/12/03 09:27:17;;;;;;;13.98;9.65;;;;;;;;;;5054393;28;20230;-74
2020/12/03 09:29:49;;;;;;;16.45;9.75;;;;;;;;;;5061123;28;20651;-76
2020/12/03 09:32:17;;;;;;;14.40;8.52;;;;;;;;;;5079265;28;20186;-77
2020/12/03 09:34:45;;;;;;;13.32;9.48;;;;;;;;;;5072351;28;20238;-78
2020/12/03 09:37:12;;;;;;;13.40;9.50;;;;;;;;;;5069576;28;20232;-77
2020/12/03 09:39:39;;;;;;;14.43;10.02;;;;;;;;;;5072451;28;20190;-81
2020/12/03 09:42:12;;;;;;;14.63;10.73;;;;;;;;;;5072075;28;20205;-76
2020/12/03 09:44:39;;;;;;;14.93;9.80;;;;;;;;;;5056356;28;20302;-75
2020/12/03 09:47:10;;;;;;;15.52;10.10;;;;;;;;;;5054346;28;20206;-74
2020/12/03 09:49:37;;;;;;;13.55;9.35;;;;;;;;;;5075242;28;20206;-78
2020/12/03 09:52:07;;;;;;;11.07;8.20;;;;;;;;;;5064924;28;20198;-80
2020/12/03 09:54:34;;;;;;;14.05;8.88;;;;;;;;;;5078648;28;20218;-75
2020/12/03 09:57:01;;;;;;;15.65;9.38;;;;;;;;;;5074207;28;20268;-77
2020/12/03 09:59:29;;;;;;;15.25;10.65;;;;;;;;;;5071985;28;20190;-76
2020/12/03 10:02:11;;;;;;;13.48;9.05;;;;;;;;;;5062213;28;20229;-79
2020/12/03 10:04:48;;;;;;;13.02;8.75;;;;;;;;;;5060548;28;20288;-79
2020/12/03 10:07:17;;;;;;;13.30;9.30;;;;;;;;;;5074446;28;20263;-79
2020/12/03 10:09:59;;;;;;;12.85;9.32;;;;;;;;;;5065990;28;20263;-78
2020/12/03 10:12:34;;;;;;;13.45;8.40;;;;;;;;;;5073217;28;20507;-76
2020/12/03 10:15:12;;;;;;;15.57;8.98;;;;;;;;;;5065722;28;20248;-77
2020/12/03 10:17:44;;;;;;;15.63;10.18;;;;;;;;;;5076619;28;20251;-76
2020/12/03 10:20:11;;;;;;;13.60;8.63;;;;;;;;;;5071967;28;20566;-77
2020/12/03 10:22:45;;;;;;;12.60;9.23;;;;;;;;;;5070014;28;20277;-79
2020/12/03 10:25:17;;;;;;;14.27;8.30;;;;;;;;;;5071884;28;20233;-78
2020/12/03 10:27:51;;;;;;;17.63;9.98;;;;;;;;;;5070828;28;20272;-77
2020/12/03 10:30:31;;;;;;;12.77;8.95;;;;;;;;;;5077437;28;20557;-75
2020/12/03 10:33:00;;;;;;;11.30;8.13;;;;;;;;;;5070483;28;20620;-80
2020/12/03 10:35:27;;;;;;;13.75;9.38;;;;;;;;;;5069045;28;20210;-77
2020/12/03 10:37:56;;;;;;;12.60;8.55;;;;;;;;;;5062653;28;20286;-76
2020/12/03 10:40:23;;;;;;;13.93;9.00;;;;;;;;;;5059702;28;20230;-80
2020/12/03 10:42:53;;;;;;;12.38;9.60;;;;;;;;;;5076667;28;20630;-77
2020/12/03 10:45:26;;;;;;;11.55;9.15;;;;;;;;;;5072351;28;20521;-76
2020/12/03 10:47:57;;;;;;;14.85;9.30;;;;;;;;;;5069763;28;20279;-80
2020/12/03 10:50:44;;;;;;;12.25;8.68;;;;;;;;;;5103415;28;20221;-80
2020/12/03 10:53:11;;;;;;;11.32;7.65;;;;;;;;;;5095818;28;20198;-78
2020/12/03 10:55:38;;;;;;;12.55;9.48;;;;;;;;;;5077160;28;20218;-78
2020/12/03 10:58:08;;;;;;;13.27;8.50;;;;;;;;;;5067803;28;20285;-78
2020/12/03 11:00:35;;;;;;;10.43;8.27;;;;;;;;;;5057966;28;20312;-76
2020/12/03 11:03:05;;;;;;;10.13;8.13;;;;;;;;;;5050250;28;20254;-81
2020/12/03 11:05:31;;;;;;;13.85;8.50;;;;;;;;;;5099870;28;20226;-79
2020/12/03 11:07:58;;;;;;;11.95;7.82;;;;;;;;;;5069310;28;20277;-78
2020/12/03 11:10:25;;;;;;;12.02;7.80;;;;;;;;;;5071799;28;20288;-79
2020/12/03 11:12:52;;;;;;;14.10;8.02;;;;;;;;;;5057957;28;20222;-81
2020/12/03 11:15:21;;;;;;;11.82;8.43;;;;;;;;;;5056733;28;20222;-78
2020/12/03 11:17:54;;;;;;;13.63;8.82;;;;;;;;;;5053395;28;20199;-77
2020/12/03 11:20:23;;;;;;;11.45;7.25;;;;;;;;;;5059584;28;20698;-79
2020/12/03 11:23:04;;;;;;;10.02;6.65;;;;;;;;;;5068519;28;20194;-78
2020/12/03 11:25:32;;;;;;;13.70;7.72;;;;;;;;;;5072295;28;20308;-77
2020/12/03 11:28:03;;;;;;;10.65;7.93;;;;;;;;;;5065498;28;20191;-78
2020/12/03 11:30:31;;;;;;;11.15;8.32;;;;;;;;;;5056585;28;20272;-78
2020/12/03 11:32:58;;;;;;;9.32;7.15;;;;;;;;;;5050535;28;20560;-77
2020/12/03 11:35:27;;;;;;;10.43;6.57;;;;;;;;;;5065596;28;20210;-77
2020/12/03 11:37:54;;;;;;;11.32;7.38;;;;;;;;;;5072776;28;20189;-79
2020/12/03 11:40:27;;;;;;;11.27;7.45;;;;;;;;;;5069521;28;20222;-76
2020/12/03 11:43:00;;;;;;;10.30;7.60;;;;;;;;;;5050681;28;20274;-77
2020/12/03 11:50:49;;;;;;;10.00;7.15;;;;;;;;;;5095920;28;20194;-81
2020/12/03 11:53:19;;;;;;;9.00;6.90;;;;;;;;;;5068958;28;20302;-80
2020/12/03 11:55:46;;;;;;;10.57;7.15;;;;;;;;;;5050433;28;20223;-78
2020/12/03 11:58:13;;;;;;;10.75;5.82;;;;;;;;;;5051695;28;20188;-76
2020/12/03 12:00:40;;;;;;;10.20;6.68;;;;;;;;;;5075303;28;20213;-76
2020/12/03 12:03:08;;;;;;;9.27;6.53;;;;;;;;;;5065984;28;20202;-77
2020/12/03 12:05:46;;;;;;;7.45;5.82;;;;;;;;;;5062952;28;20621;-77
2020/12/03 12:08:22;;;;;;;8.02;6.10;;;;;;;;;;5063516;28;20193;-79
2020/12/03 12:10:53;;;;;;;10.60;7.30;;;;;;;;;;5070987;28;20182;-79
2020/12/03 12:13:20;;;;;;;8.95;7.03;;;;;;;;;;5074463;28;20230;-76
2020/12/03 12:15:49;;;;;;;9.35;6.63;;;;;;;;;;5075010;28;20249;-76
2020/12/03 12:18:16;;;;;;;9.40;6.60;;;;;;;;;;5067021;28;20241;-77
2020/12/03 12:20:43;;;;;;;8.15;6.18;;;;;;;;;;5057111;28;20223;-77
2020/12/03 12:23:10;;;;;;;9.60;6.85;;;;;;;;;;5079332;28;20668;-79
2020/12/03 12:25:38;;;;;;;12.88;6.30;;;;;;;;;;5077399;28;20253;-77
2020/12/03 12:28:04;;;;;;;7.80;6.20;;;;;;;;;;5074644;28;20204;-79
2020/12/03 12:30:32;;;;;;;8.27;6.75;;;;;;;;;;5072873;28;20263;-75
2020/12/03 12:32:59;;;;;;;11.77;6.80;;;;;;;;;;5055855;28;20198;-78
2020/12/03 12:35:26;;;;;;;8.63;6.50;;;;;;;;;;5075555;28;20339;-76
2020/12/03 12:37:54;;;;;;;9.68;6.65;;;;;;;;;;5076679;28;20222;-77
2020/12/03 12:40:21;;;;;;;10.00;6.55;;;;;;;;;;5071938;28;20274;-78
2020/12/03 12:42:49;;;;;;;11.38;7.43;;;;;;;;;;5056770;28;20199;-77
2020/12/03 12:45:16;;;;;;;10.20;7.07;;;;;;;;;;5076212;28;20629;-77
2020/12/03 12:47:42;;;;;;;9.98;6.88;;;;;;;;;;5074896;28;20281;-79
2020/12/03 12:50:10;;;;;;;10.45;7.25;;;;;;;;;;5070679;28;20201;-80
2020/12/03 12:52:37;;;;;;;7.63;6.55;;;;;;;;;;5070265;28;20195;-79
2020/12/03 12:55:03;;;;;;;11.57;7.28;;;;;;;;;;5070391;28;20486;-76
2020/12/03 12:57:30;;;;;;;9.27;6.55;;;;;;;;;;5071966;28;20299;-78
2020/12/03 12:59:58;;;;;;;10.35;6.20;;;;;;;;;;5076268;28;20194;-76
2020/12/03 13:02:25;;;;;;;9.40;5.68;;;;;;;;;;5084553;28;20232;-77
2020/12/03 13:04:52;;;;;;;10.75;6.30;;;;;;;;;;5091021;28;20305;-77
2020/12/03 13:07:19;;;;;;;6.55;5.43;;;;;;;;;;5090619;28;20209;-77
2020/12/03 13:09:45;;;;;;;8.05;5.90;;;;;;;;;;5085626;28;20248;-79
2020/12/03 13:12:12;;;;;;;8.40;6.10;;;;;;;;;;5052232;28;20295;-77
2020/12/03 13:14:39;;;;;;;8.25;6.60;;;;;;;;;;5054126;28;20758;-79
2020/12/03 13:17:07;;;;;;;12.43;7.68;;;;;;;;;;5075786;28;20196;-75
2020/12/03 13:19:34;;;;;;;11.88;8.73;;;;;;;;;;5081322;28;20193;-76
2020/12/03 13:22:00;;;;;;;13.35;8.77;;;;;;;;;;5076848;28;20618;-77
2020/12/03 13:24:27;;;;;;;11.75;8.38;;;;;;;;;;5053250;28;20218;-76
2020/12/03 13:26:54;;;;;;;13.90;9.25;;;;;;;;;;5052360;28;20197;-76
2020/12/03 13:29:22;;;;;;;11.70;8.25;;;;;;;;;;5074632;28;20288;-76
2020/12/03 13:31:49;;;;;;;11.20;8.27;;;;;;;;;;5070123;28;20219;-78
2020/12/03 13:34:16;;;;;;;9.10;6.90;;;;;;;;;;5055633;28;20302;-76
2020/12/03 13:36:43;;;;;;;10.48;6.75;;;;;;;;;;5055482;28;20289;-80
2020/12/03 13:39:10;;;;;;;8.20;6.10;;;;;;;;;;5070722;28;20266;-79
2020/12/03 13:41:37;;;;;;;9.88;6.25;;;;;;;;;;5080387;28;20259;-77
2020/12/03 13:44:04;;;;;;;7.43;5.75;;;;;;;;;;5092798;28;20285;-78
2020/12/03 13:46:35;;;;;;;8.55;6.00;;;;;;;;;;5093465;28;20225;-78
2020/12/03 13:49:02;;;;;;;7.38;5.35;;;;;;;;;;5093418;28;20194;-79
2020/12/03 13:51:29;;;;;;;8.13;6.22;;;;;;;;;;5080470;28;20256;-81
2020/12/03 13:53:56;;;;;;;8.13;6.15;;;;;;;;;;5075459;28;20190;-78
2020/12/03 13:56:23;;;;;;;7.35;5.00;;;;;;;;;;5075202;28;20252;-77
2020/12/03 13:58:50;;;;;;;7.47;5.00;;;;;;;;;;5075202;28;20281;-80
2020/12/03 14:01:17;;;;;;;6.38;5.15;;;;;;;;;;5077304;28;20242;-79
2020/12/03 14:03:44;;;;;;;6.57;4.38;;;;;;;;;;5079970;28;20621;-77
2020/12/03 14:06:10;;;;;;;6.00;4.60;;;;;;;;;;5092465;28;20270;-77
2020/12/03 14:08:38;;;;;;;5.80;4.20;;;;;;;;;;5092965;28;20684;-77
2020/12/03 14:11:05;;;;;;;6.32;4.50;;;;;;;;;;5092943;28;20288;-75
2020/12/03 14:13:32;;;;;;;5.03;4.28;;;;;;;;;;5081362;28;20317;-76
2020/12/03 14:15:59;;;;;;;5.65;4.00;;;;;;;;;;5074662;28;20225;-79
2020/12/03 14:18:25;;;;;;;5.13;4.35;;;;;;;;;;5074847;28;20260;-77
2020/12/03 14:20:52;;;;;;;5.63;4.25;;;;;;;;;;5074315;28;20308;-78
2020/12/03 14:23:19;;;;;;;3.70;3.40;;;;;;;;;;5076960;28;20196;-81
2020/12/03 14:25:47;;;;;;;5.38;4.25;;;;;;;;;;5078298;28;20294;-77
2020/12/03 14:28:14;;;;;;;4.60;3.97;;;;;;;;;;5072148;28;20275;-75
2020/12/03 14:30:40;;;;;;;4.35;3.50;;;;;;;;;;5072263;28;20289;-75
2020/12/03 14:33:07;;;;;;;4.65;3.83;;;;;;;;;;5072173;28;20281;-77
2020/12/03 14:35:34;;;;;;;5.47;3.80;;;;;;;;;;5073221;28;20651;-83
2020/12/03 14:38:01;;;;;;;5.50;4.20;;;;;;;;;;5074508;28;20197;-82
2020/12/03 14:40:28;;;;;;;6.82;4.68;;;;;;;;;;5074388;28;20233;-77
2020/12/03 14:42:55;;;;;;;9.77;4.97;;;;;;;;;;5074492;28;20230;-80